sensor_id;sensor_type;location;lat;lon;timestamp;pressure;altitude;pressure_sealevel;temperature;humidity
21504;BME280;10913;51.992;9.228;2023-06-01T00:01:48;100884.53;;;16.24;82.94
21504;BME280;10913;51.992;9.228;2023-06-01T00:04:14;100880.16;;;16.20;82.99
21504;BME280;10913;51.992;9.228;2023-06-01T00:06:40;100883.88;;;16.14;83.48
21504;BME280;10913;51.992;9.228;2023-06-01T00:09:06;100883.94;;;16.10;83.51
21504;BME280;10913;51.992;9.228;2023-06-01T00:11:31;100888.50;;;16.03;83.84
21504;BME280;10913;51.992;9.228;2023-06-01T00:13:57;100893.97;;;15.97;83.98
21504;BME280;10913;51.992;9.228;2023-06-01T00:16:22;100892.34;;;15.90;84.73
21504;BME280;10913;51.992;9.228;2023-06-01T00:18:48;100896.88;;;15.85;84.93
21504;BME280;10913;51.992;9.228;2023-06-01T00:21:14;100891.63;;;15.80;84.68
21504;BME280;10913;51.992;9.228;2023-06-01T00:23:40;100895.28;;;15.75;85.40
21504;BME280;10913;51.992;9.228;2023-06-01T00:26:07;100892.69;;;15.72;85.37
21504;BME280;10913;51.992;9.228;2023-06-01T00:28:33;100893.59;;;15.69;85.34
21504;BME280;10913;51.992;9.228;2023-06-01T00:30:59;100891.06;;;15.62;86.11
21504;BME280;10913;51.992;9.228;2023-06-01T00:33:25;100897.41;;;15.53;86.45
21504;BME280;10913;51.992;9.228;2023-06-01T00:35:50;100901.91;;;15.49;86.63
21504;BME280;10913;51.992;9.228;2023-06-01T00:38:16;100894.78;;;15.51;86.53
21504;BME280;10913;51.992;9.228;2023-06-01T00:40:41;100898.41;;;15.47;86.58
21504;BME280;10913;51.992;9.228;2023-06-01T00:43:08;100894.84;;;15.48;86.29
21504;BME280;10913;51.992;9.228;2023-06-01T00:45:34;100894.78;;;15.51;86.01
21504;BME280;10913;51.992;9.228;2023-06-01T00:47:59;100895.63;;;15.54;85.76
21504;BME280;10913;51.992;9.228;2023-06-01T00:50:25;100889.44;;;15.53;85.78
21504;BME280;10913;51.992;9.228;2023-06-01T00:52:51;100891.22;;;15.52;85.35
21504;BME280;10913;51.992;9.228;2023-06-01T00:55:18;100893.88;;;15.56;85.12
21504;BME280;10913;51.992;9.228;2023-06-01T00:57:45;100889.41;;;15.55;85.01
21504;BME280;10913;51.992;9.228;2023-06-01T01:00:12;100893.94;;;15.49;85.18
21504;BME280;10913;51.992;9.228;2023-06-01T01:02:41;100887.78;;;15.44;85.25
21504;BME280;10913;51.992;9.228;2023-06-01T01:05:10;100896.72;;;15.40;85.41
21504;BME280;10913;51.992;9.228;2023-06-01T01:07:43;100892.38;;;15.36;85.80
21504;BME280;10913;51.992;9.228;2023-06-01T01:15:44;100887.19;;;15.27;85.48
21504;BME280;10913;51.992;9.228;2023-06-01T01:18:25;100892.53;;;15.27;85.73
21504;BME280;10913;51.992;9.228;2023-06-01T01:20:57;100890.78;;;15.25;85.46
21504;BME280;10913;51.992;9.228;2023-06-01T01:26:24;100894.41;;;15.21;84.84
21504;BME280;10913;51.992;9.228;2023-06-01T01:29:04;100896.31;;;15.14;84.98
21504;BME280;10913;51.992;9.228;2023-06-01T01:31:32;100892.88;;;15.06;85.02
21504;BME280;10913;51.992;9.228;2023-06-01T01:34:01;100901.81;;;15.00;84.79
21504;BME280;10913;51.992;9.228;2023-06-01T01:36:27;100898.44;;;14.91;85.13
21504;BME280;10913;51.992;9.228;2023-06-01T01:38:53;100894.09;;;14.83;85.15
21504;BME280;10913;51.992;9.228;2023-06-01T01:41:19;100897.69;;;14.79;85.02
21504;BME280;10913;51.992;9.228;2023-06-01T01:43:45;100900.41;;;14.76;84.93
21504;BME280;10913;51.992;9.228;2023-06-01T01:48:51;100893.31;;;14.77;84.25
21504;BME280;10913;51.992;9.228;2023-06-01T01:51:29;100897.75;;;14.76;84.36
21504;BME280;10913;51.992;9.228;2023-06-01T01:53:59;100886.25;;;14.76;83.89
21504;BME280;10913;51.992;9.228;2023-06-01T01:56:26;100891.44;;;14.83;83.37
21504;BME280;10913;51.992;9.228;2023-06-01T01:58:52;100893.31;;;14.77;83.08
21504;BME280;10913;51.992;9.228;2023-06-01T02:01:19;100880.19;;;14.63;83.49
21504;BME280;10913;51.992;9.228;2023-06-01T02:03:45;100891.78;;;14.59;83.39
21504;BME280;10913;51.992;9.228;2023-06-01T02:06:10;100885.69;;;14.53;83.20
21504;BME280;10913;51.992;9.228;2023-06-01T02:08:36;100888.34;;;14.51;83.34
21504;BME280;10913;51.992;9.228;2023-06-01T02:11:01;100888.38;;;14.48;83.43
21504;BME280;10913;51.992;9.228;2023-06-01T02:13:26;100886.63;;;14.47;83.46
21504;BME280;10913;51.992;9.228;2023-06-01T02:15:52;100880.44;;;14.45;83.36
21504;BME280;10913;51.992;9.228;2023-06-01T02:18:17;100881.38;;;14.42;83.61
21504;BME280;10913;51.992;9.228;2023-06-01T02:20:44;100884.94;;;14.38;83.57
21504;BME280;10913;51.992;9.228;2023-06-01T02:23:10;100882.41;;;14.29;83.64
21504;BME280;10913;51.992;9.228;2023-06-01T02:25:35;100883.31;;;14.27;83.68
21504;BME280;10913;51.992;9.228;2023-06-01T02:28:00;100876.22;;;14.26;83.70
21504;BME280;10913;51.992;9.228;2023-06-01T02:30:26;100888.66;;;14.24;83.65
21504;BME280;10913;51.992;9.228;2023-06-01T02:32:52;100883.38;;;14.21;83.74
21504;BME280;10913;51.992;9.228;2023-06-01T02:35:17;100879.91;;;14.16;83.81
21504;BME280;10913;51.992;9.228;2023-06-01T02:37:43;100879.13;;;14.07;84.26
21504;BME280;10913;51.992;9.228;2023-06-01T02:40:09;100875.66;;;13.99;84.56
21504;BME280;10913;51.992;9.228;2023-06-01T02:42:37;100879.25;;;13.97;84.88
21504;BME280;10913;51.992;9.228;2023-06-01T02:45:05;100882.78;;;13.97;84.74
21504;BME280;10913;51.992;9.228;2023-06-01T02:47:31;100873.97;;;13.95;84.85
21504;BME280;10913;51.992;9.228;2023-06-01T02:49:56;100879.28;;;13.95;85.04
21504;BME280;10913;51.992;9.228;2023-06-01T02:52:22;100875.72;;;13.98;85.29
21504;BME280;10913;51.992;9.228;2023-06-01T02:54:47;100877.47;;;13.97;85.10
21504;BME280;10913;51.992;9.228;2023-06-01T02:57:12;100881.84;;;14.00;84.94
21504;BME280;10913;51.992;9.228;2023-06-01T02:59:38;100884.50;;;14.01;85.28
21504;BME280;10913;51.992;9.228;2023-06-01T03:02:03;100881.84;;;14.00;85.20
21504;BME280;10913;51.992;9.228;2023-06-01T03:04:29;100876.53;;;14.01;85.54
21504;BME280;10913;51.992;9.228;2023-06-01T03:06:57;100880.84;;;14.11;85.19
21504;BME280;10913;51.992;9.228;2023-06-01T03:09:24;100879.13;;;14.06;84.82
21504;BME280;10913;51.992;9.228;2023-06-01T03:11:49;100880.06;;;14.02;85.00
21504;BME280;10913;51.992;9.228;2023-06-01T03:14:15;100871.22;;;14.01;85.09
21504;BME280;10913;51.992;9.228;2023-06-01T03:16:40;100875.66;;;13.99;85.13
21504;BME280;10913;51.992;9.228;2023-06-01T03:19:06;100882.84;;;13.91;85.29
21504;BME280;10913;51.992;9.228;2023-06-01T03:21:31;100878.44;;;13.90;85.28
21504;BME280;10913;51.992;9.228;2023-06-01T03:23:57;100873.13;;;13.90;85.49
21504;BME280;10913;51.992;9.228;2023-06-01T03:26:22;100880.19;;;13.91;85.63
21504;BME280;10913;51.992;9.228;2023-06-01T03:28:48;100874.00;;;13.92;85.38
21504;BME280;10913;51.992;9.228;2023-06-01T03:31:13;100869.53;;;13.94;85.57
21504;BME280;10913;51.992;9.228;2023-06-01T03:33:39;100877.53;;;13.93;85.51
21504;BME280;10913;51.992;9.228;2023-06-01T03:36:05;100873.09;;;13.92;85.79
21504;BME280;10913;51.992;9.228;2023-06-01T03:38:32;100869.56;;;13.93;85.38
21504;BME280;10913;51.992;9.228;2023-06-01T03:40:57;100870.44;;;13.93;85.52
21504;BME280;10913;51.992;9.228;2023-06-01T03:43:23;100874.03;;;13.86;85.69
21504;BME280;10913;51.992;9.228;2023-06-01T03:45:48;100875.88;;;13.81;85.66
21504;BME280;10913;51.992;9.228;2023-06-01T03:48:14;100883.06;;;13.73;85.84
21504;BME280;10913;51.992;9.228;2023-06-01T03:50:39;100872.47;;;13.67;85.68
21504;BME280;10913;51.992;9.228;2023-06-01T03:53:05;100877.78;;;13.67;85.64
21504;BME280;10913;51.992;9.228;2023-06-01T03:55:30;100863.59;;;13.71;85.67
21504;BME280;10913;51.992;9.228;2023-06-01T03:57:56;100878.53;;;13.81;85.40
21504;BME280;10913;51.992;9.228;2023-06-01T04:00:22;100875.84;;;13.84;84.71
21504;BME280;10913;51.992;9.228;2023-06-01T04:02:58;100872.31;;;13.80;84.61
21504;BME280;10913;51.992;9.228;2023-06-01T04:05:25;100872.34;;;13.79;84.76
21504;BME280;10913;51.992;9.228;2023-06-01T04:07:53;100872.44;;;13.71;84.90
21504;BME280;10913;51.992;9.228;2023-06-01T04:10:19;100871.63;;;13.63;85.27
21504;BME280;10913;51.992;9.228;2023-06-01T04:12:47;100879.63;;;13.60;85.21
21504;BME280;10913;51.992;9.228;2023-06-01T04:15:15;100872.59;;;13.58;85.93
21504;BME280;10913;51.992;9.228;2023-06-01T04:17:41;100874.28;;;13.62;85.70
21504;BME280;10913;51.992;9.228;2023-06-01T04:20:09;100871.72;;;13.57;85.61
21504;BME280;10913;51.992;9.228;2023-06-01T04:22:36;100875.25;;;13.58;85.35
21504;BME280;10913;51.992;9.228;2023-06-01T04:25:08;100873.44;;;13.60;85.30
21504;BME280;10913;51.992;9.228;2023-06-01T04:27:35;100872.50;;;13.64;85.12
21504;BME280;10913;51.992;9.228;2023-06-01T04:30:07;100873.38;;;13.64;85.25
21504;BME280;10913;51.992;9.228;2023-06-01T04:32:36;100868.97;;;13.65;85.27
21504;BME280;10913;51.992;9.228;2023-06-01T04:35:06;100868.06;;;13.64;85.19
21504;BME280;10913;51.992;9.228;2023-06-01T04:37:33;100875.06;;;13.74;84.84
21504;BME280;10913;51.992;9.228;2023-06-01T04:40:00;100868.00;;;13.72;84.73
21504;BME280;10913;51.992;9.228;2023-06-01T04:42:25;100868.88;;;13.74;84.66
21504;BME280;10913;51.992;9.228;2023-06-01T04:44:50;100862.66;;;13.75;84.45
21504;BME280;10913;51.992;9.228;2023-06-01T04:47:16;100861.78;;;13.76;83.99
21504;BME280;10913;51.992;9.228;2023-06-01T04:49:43;100860.00;;;13.78;84.64
21504;BME280;10913;51.992;9.228;2023-06-01T04:52:09;100864.31;;;13.85;84.37
21504;BME280;10913;51.992;9.228;2023-06-01T04:54:37;100865.22;;;13.84;84.46
21504;BME280;10913;51.992;9.228;2023-06-01T04:57:03;100858.09;;;13.86;84.30
21504;BME280;10913;51.992;9.228;2023-06-01T04:59:31;100864.31;;;13.87;84.08
21504;BME280;10913;51.992;9.228;2023-06-01T05:01:57;100866.97;;;13.85;83.93
21504;BME280;10913;51.992;9.228;2023-06-01T05:04:22;100861.69;;;13.82;84.07
21504;BME280;10913;51.992;9.228;2023-06-01T05:06:48;100865.31;;;13.78;83.87
21504;BME280;10913;51.992;9.228;2023-06-01T05:09:13;100863.47;;;13.80;84.37
21504;BME280;10913;51.992;9.228;2023-06-01T05:11:39;100866.19;;;13.77;84.15
21504;BME280;10913;51.992;9.228;2023-06-01T05:14:05;100859.13;;;13.76;84.12
21504;BME280;10913;51.992;9.228;2023-06-01T05:16:30;100858.25;;;13.74;84.02
21504;BME280;10913;51.992;9.228;2023-06-01T05:18:56;100857.38;;;13.75;83.97
21504;BME280;10913;51.992;9.228;2023-06-01T05:21:22;100858.25;;;13.74;84.37
21504;BME280;10913;51.992;9.228;2023-06-01T05:23:47;100859.16;;;13.73;84.36
21504;BME280;10913;51.992;9.228;2023-06-01T05:26:13;100858.28;;;13.69;84.66
21504;BME280;10913;51.992;9.228;2023-06-01T05:28:38;100867.13;;;13.73;84.37
21504;BME280;10913;51.992;9.228;2023-06-01T05:31:03;100858.22;;;13.77;84.50
21504;BME280;10913;51.992;9.228;2023-06-01T05:33:29;100861.66;;;13.85;84.32
21504;BME280;10913;51.992;9.228;2023-06-01T05:35:54;100859.81;;;13.93;83.41
21504;BME280;10913;51.992;9.228;2023-06-01T05:38:20;100863.34;;;13.95;83.57
21504;BME280;10913;51.992;9.228;2023-06-01T05:40:45;100860.69;;;13.95;84.07
21504;BME280;10913;51.992;9.228;2023-06-01T05:43:11;100859.72;;;13.99;83.83
21504;BME280;10913;51.992;9.228;2023-06-01T05:45:36;100868.53;;;14.04;83.49
21504;BME280;10913;51.992;9.228;2023-06-01T05:48:02;100873.81;;;14.07;83.65
21504;BME280;10913;51.992;9.228;2023-06-01T05:50:28;100873.78;;;14.10;83.58
21504;BME280;10913;51.992;9.228;2023-06-01T05:52:53;100869.28;;;14.16;83.43
21504;BME280;10913;51.992;9.228;2023-06-01T05:55:19;100870.97;;;14.20;83.29
21504;BME280;10913;51.992;9.228;2023-06-01T05:57:44;100863.91;;;14.20;83.28
21504;BME280;10913;51.992;9.228;2023-06-01T06:00:11;100868.28;;;14.23;83.39
21504;BME280;10913;51.992;9.228;2023-06-01T06:02:39;100864.75;;;14.24;83.70
21504;BME280;10913;51.992;9.228;2023-06-01T06:05:05;100867.38;;;14.25;83.33
21504;BME280;10913;51.992;9.228;2023-06-01T06:07:31;100870.03;;;14.25;83.52
21504;BME280;10913;51.992;9.228;2023-06-01T06:09:56;100871.78;;;14.28;83.32
21504;BME280;10913;51.992;9.228;2023-06-01T06:12:22;100868.22;;;14.30;83.28
21504;BME280;10913;51.992;9.228;2023-06-01T06:14:47;100870.88;;;14.29;83.74
21504;BME280;10913;51.992;9.228;2023-06-01T06:17:14;100862.00;;;14.31;83.69
21504;BME280;10913;51.992;9.228;2023-06-01T06:19:39;100863.72;;;14.35;82.99
21504;BME280;10913;51.992;9.228;2023-06-01T06:22:05;100861.94;;;14.36;82.72
21504;BME280;10913;51.992;9.228;2023-06-01T06:24:30;100860.19;;;14.35;83.81
21504;BME280;10913;51.992;9.228;2023-06-01T06:26:55;100861.09;;;14.34;83.21
21504;BME280;10913;51.992;9.228;2023-06-01T06:29:21;100867.25;;;14.37;83.00
21504;BME280;10913;51.992;9.228;2023-06-01T06:31:46;100860.13;;;14.41;82.46
21504;BME280;10913;51.992;9.228;2023-06-01T06:34:12;100854.78;;;14.42;82.80
21504;BME280;10913;51.992;9.228;2023-06-01T06:36:38;100857.47;;;14.41;83.14
21504;BME280;10913;51.992;9.228;2023-06-01T06:39:03;100860.09;;;14.42;83.37
21504;BME280;10913;51.992;9.228;2023-06-01T06:41:29;100863.63;;;14.44;83.52
21504;BME280;10913;51.992;9.228;2023-06-01T06:43:54;100857.41;;;14.44;83.79
21504;BME280;10913;51.992;9.228;2023-06-01T06:46:20;100862.75;;;14.42;83.84
21504;BME280;10913;51.992;9.228;2023-06-01T06:48:45;100860.97;;;14.43;84.53
21504;BME280;10913;51.992;9.228;2023-06-01T06:51:10;100867.19;;;14.42;84.39
21504;BME280;10913;51.992;9.228;2023-06-01T06:53:36;100862.75;;;14.44;84.30
21504;BME280;10913;51.992;9.228;2023-06-01T06:56:03;100858.22;;;14.51;83.54
21504;BME280;10913;51.992;9.228;2023-06-01T06:58:33;100869.72;;;14.53;83.91
21504;BME280;10913;51.992;9.228;2023-06-01T07:00:59;100857.28;;;14.56;83.80
21504;BME280;10913;51.992;9.228;2023-06-01T07:03:29;100861.72;;;14.56;84.19
21504;BME280;10913;51.992;9.228;2023-06-01T07:05:55;100866.16;;;14.55;84.46
21504;BME280;10913;51.992;9.228;2023-06-01T07:08:21;100868.81;;;14.54;83.81
21504;BME280;10913;51.992;9.228;2023-06-01T07:10:46;100875.81;;;14.59;83.29
21504;BME280;10913;51.992;9.228;2023-06-01T07:13:11;100863.34;;;14.64;83.02
21504;BME280;10913;51.992;9.228;2023-06-01T07:15:37;100865.97;;;14.66;83.31
21504;BME280;10913;51.992;9.228;2023-06-01T07:18:02;100869.50;;;14.68;83.61
21504;BME280;10913;51.992;9.228;2023-06-01T07:20:28;100874.00;;;14.63;84.61
21504;BME280;10913;51.992;9.228;2023-06-01T07:22:53;100868.78;;;14.57;85.39
21504;BME280;10913;51.992;9.228;2023-06-01T07:25:18;100869.72;;;14.53;85.55
21504;BME280;10913;51.992;9.228;2023-06-01T07:27:44;100869.72;;;14.54;84.54
21504;BME280;10913;51.992;9.228;2023-06-01T07:30:10;100881.25;;;14.53;85.27
21504;BME280;10913;51.992;9.228;2023-06-01T07:32:37;100868.84;;;14.52;85.36
21504;BME280;10913;51.992;9.228;2023-06-01T07:35:02;100871.47;;;14.55;85.27
21504;BME280;10913;51.992;9.228;2023-06-01T07:37:30;100874.09;;;14.57;85.26
21504;BME280;10913;51.992;9.228;2023-06-01T07:39:57;100870.56;;;14.56;85.67
21504;BME280;10913;51.992;9.228;2023-06-01T07:42:22;100869.66;;;14.57;85.19
21504;BME280;10913;51.992;9.228;2023-06-01T07:44:48;100864.38;;;14.54;85.96
21504;BME280;10913;51.992;9.228;2023-06-01T07:47:13;100872.25;;;14.60;84.90
21504;BME280;10913;51.992;9.228;2023-06-01T07:49:39;100879.28;;;14.66;84.74
21504;BME280;10913;51.992;9.228;2023-06-01T07:52:05;100876.59;;;14.67;84.55
21504;BME280;10913;51.992;9.228;2023-06-01T07:54:32;100870.41;;;14.67;85.87
21504;BME280;10913;51.992;9.228;2023-06-01T07:56:58;100877.41;;;14.74;84.36
21504;BME280;10913;51.992;9.228;2023-06-01T07:59:23;100865.84;;;14.76;84.58
21504;BME280;10913;51.992;9.228;2023-06-01T08:01:49;100868.41;;;14.81;84.16
21504;BME280;10913;51.992;9.228;2023-06-01T08:04:15;100864.81;;;14.85;83.87
21504;BME280;10913;51.992;9.228;2023-06-01T08:06:42;100863.88;;;14.88;85.11
21504;BME280;10913;51.992;9.228;2023-06-01T08:09:07;100866.53;;;14.89;84.67
21504;BME280;10913;51.992;9.228;2023-06-01T08:11:32;100876.28;;;14.89;84.29
21504;BME280;10913;51.992;9.228;2023-06-01T08:13:58;100870.94;;;14.92;84.69
21504;BME280;10913;51.992;9.228;2023-06-01T08:16:25;100870.94;;;14.92;84.70
21504;BME280;10913;51.992;9.228;2023-06-01T08:18:51;100872.69;;;14.93;85.22
21504;BME280;10913;51.992;9.228;2023-06-01T08:21:17;100867.34;;;14.94;85.02
21504;BME280;10913;51.992;9.228;2023-06-01T08:23:43;100867.41;;;14.90;85.45
21504;BME280;10913;51.992;9.228;2023-06-01T08:26:08;100864.75;;;14.88;85.85
21504;BME280;10913;51.992;9.228;2023-06-01T08:28:33;100871.84;;;14.89;85.87
21504;BME280;10913;51.992;9.228;2023-06-01T08:30:59;100865.66;;;14.89;86.18
21504;BME280;10913;51.992;9.228;2023-06-01T08:33:24;100870.09;;;14.87;86.28
21504;BME280;10913;51.992;9.228;2023-06-01T08:35:50;100868.31;;;14.89;85.27
21504;BME280;10913;51.992;9.228;2023-06-01T08:38:15;100872.69;;;14.93;84.42
21504;BME280;10913;51.992;9.228;2023-06-01T08:40:40;100870.88;;;14.95;84.19
21504;BME280;10913;51.992;9.228;2023-06-01T08:45:40;100857.59;;;14.95;85.60
21504;BME280;10913;51.992;9.228;2023-06-01T08:48:07;100859.31;;;14.97;85.28
21504;BME280;10913;51.992;9.228;2023-06-01T08:50:34;100853.13;;;14.97;85.23
21504;BME280;10913;51.992;9.228;2023-06-01T08:52:59;100858.41;;;14.98;85.57
21504;BME280;10913;51.992;9.228;2023-06-01T08:55:26;100865.53;;;14.98;85.29
21504;BME280;10913;51.992;9.228;2023-06-01T08:57:53;100865.41;;;15.04;85.08
21504;BME280;10913;51.992;9.228;2023-06-01T09:00:19;100860.88;;;15.10;85.47
21504;BME280;10913;51.992;9.228;2023-06-01T09:02:45;100859.91;;;15.16;85.61
21504;BME280;10913;51.992;9.228;2023-06-01T09:05:12;100854.56;;;15.16;85.41
21504;BME280;10913;51.992;9.228;2023-06-01T09:07:39;100858.00;;;15.21;84.33
21504;BME280;10913;51.992;9.228;2023-06-01T09:10:05;100852.69;;;15.21;84.40
21504;BME280;10913;51.992;9.228;2023-06-01T09:12:31;100857.09;;;15.24;84.72
21504;BME280;10913;51.992;9.228;2023-06-01T09:15:17;100853.50;;;15.26;84.07
21504;BME280;10913;51.992;9.228;2023-06-01T09:17:47;100856.13;;;15.29;84.54
21504;BME280;10913;51.992;9.228;2023-06-01T09:20:24;100851.66;;;15.31;84.75
21504;BME280;10913;51.992;9.228;2023-06-01T09:22:50;100844.47;;;15.36;84.61
21504;BME280;10913;51.992;9.228;2023-06-01T09:25:15;100847.03;;;15.39;83.79
21504;BME280;10913;51.992;9.228;2023-06-01T09:27:50;100842.56;;;15.43;83.52
21504;BME280;10913;51.992;9.228;2023-06-01T09:30:17;100844.25;;;15.47;83.50
21504;BME280;10913;51.992;9.228;2023-06-01T09:32:43;100837.06;;;15.54;83.26
21504;BME280;10913;51.992;9.228;2023-06-01T09:35:12;100837.00;;;15.58;83.69
21504;BME280;10913;51.992;9.228;2023-06-01T09:37:38;100834.25;;;15.61;83.38
21504;BME280;10913;51.992;9.228;2023-06-01T09:40:18;100828.03;;;15.62;84.78
21504;BME280;10913;51.992;9.228;2023-06-01T09:42:43;100824.47;;;15.62;83.33
21504;BME280;10913;51.992;9.228;2023-06-01T09:45:21;100832.38;;;15.68;83.83
21504;BME280;10913;51.992;9.228;2023-06-01T09:47:48;100830.59;;;15.67;84.05
21504;BME280;10913;51.992;9.228;2023-06-01T09:50:39;100830.44;;;15.76;83.24
21504;BME280;10913;51.992;9.228;2023-06-01T09:53:05;100822.38;;;15.79;83.14
21504;BME280;10913;51.992;9.228;2023-06-01T09:55:31;100824.13;;;15.80;83.13
21504;BME280;10913;51.992;9.228;2023-06-01T09:58:22;100830.31;;;15.82;83.18
21504;BME280;10913;51.992;9.228;2023-06-01T10:00:49;100831.22;;;15.81;82.54
21504;BME280;10913;51.992;9.228;2023-06-01T10:03:16;100827.63;;;15.83;82.76
21504;BME280;10913;51.992;9.228;2023-06-01T10:05:45;100832.13;;;15.80;83.71
21504;BME280;10913;51.992;9.228;2023-06-01T10:08:12;100825.91;;;15.79;83.46
21504;BME280;10913;51.992;9.228;2023-06-01T10:10:39;100823.16;;;15.84;83.42
21504;BME280;10913;51.992;9.228;2023-06-01T10:13:05;100824.97;;;15.82;83.77
21504;BME280;10913;51.992;9.228;2023-06-01T10:15:32;100824.00;;;15.86;83.12
21504;BME280;10913;51.992;9.228;2023-06-01T10:17:58;100816.94;;;15.83;83.88
21504;BME280;10913;51.992;9.228;2023-06-01T10:20:25;100814.25;;;15.85;84.20
21504;BME280;10913;51.992;9.228;2023-06-01T10:22:50;100817.78;;;15.87;84.14
21504;BME280;10913;51.992;9.228;2023-06-01T10:25:18;100807.06;;;15.90;83.62
21504;BME280;10913;51.992;9.228;2023-06-01T10:27:52;100812.38;;;15.90;84.19
21504;BME280;10913;51.992;9.228;2023-06-01T10:30:20;100809.78;;;15.87;84.64
21504;BME280;10913;51.992;9.228;2023-06-01T10:32:46;100803.50;;;15.90;84.54
21504;BME280;10913;51.992;9.228;2023-06-01T10:40:40;100804.25;;;15.98;84.39
21504;BME280;10913;51.992;9.228;2023-06-01T10:43:06;100804.06;;;16.05;83.13
21504;BME280;10913;51.992;9.228;2023-06-01T10:47:59;100793.09;;;16.19;82.89
21504;BME280;10913;51.992;9.228;2023-06-01T10:50:24;100793.91;;;16.23;82.38
21504;BME280;10913;51.992;9.228;2023-06-01T10:52:52;100792.91;;;16.28;83.04
21504;BME280;10913;51.992;9.228;2023-06-01T10:57:43;100799.00;;;16.35;83.36
21504;BME280;10913;51.992;9.228;2023-06-01T11:05:43;100791.81;;;16.38;82.76
21504;BME280;10913;51.992;9.228;2023-06-01T11:10:58;100793.44;;;16.44;83.05
21504;BME280;10913;51.992;9.228;2023-06-01T11:13:35;100793.31;;;16.50;82.53
21504;BME280;10913;51.992;9.228;2023-06-01T11:21:33;100798.28;;;16.67;81.29
21504;BME280;10913;51.992;9.228;2023-06-01T11:24:00;100793.66;;;16.75;81.42
21504;BME280;10913;51.992;9.228;2023-06-01T11:26:38;100791.63;;;16.84;82.09
21504;BME280;10913;51.992;9.228;2023-06-01T11:29:16;100790.56;;;16.92;82.21
21504;BME280;10913;51.992;9.228;2023-06-01T11:34:11;100790.50;;;16.95;81.37
21504;BME280;10913;51.992;9.228;2023-06-01T11:36:39;100783.22;;;17.00;81.03
21504;BME280;10913;51.992;9.228;2023-06-01T11:39:05;100781.47;;;16.99;81.62
21504;BME280;10913;51.992;9.228;2023-06-01T11:41:35;100781.38;;;17.02;80.82
21504;BME280;10913;51.992;9.228;2023-06-01T11:44:01;100766.97;;;17.09;80.74
21504;BME280;10913;51.992;9.228;2023-06-01T11:46:27;100774.75;;;17.18;80.87
21504;BME280;10913;51.992;9.228;2023-06-01T11:49:06;100769.28;;;17.22;81.13
21504;BME280;10913;51.992;9.228;2023-06-01T11:51:33;100762.09;;;17.25;80.17
21504;BME280;10913;51.992;9.228;2023-06-01T11:54:02;100774.34;;;17.33;80.13
21504;BME280;10913;51.992;9.228;2023-06-01T11:56:33;100769.06;;;17.32;80.40
21504;BME280;10913;51.992;9.228;2023-06-01T11:58:59;100770.03;;;17.28;80.51
21504;BME280;10913;51.992;9.228;2023-06-01T12:01:26;100770.00;;;17.29;80.65
21504;BME280;10913;51.992;9.228;2023-06-01T12:03:51;100771.00;;;17.25;80.23
21504;BME280;10913;51.992;9.228;2023-06-01T12:06:24;100761.16;;;17.27;80.59
21504;BME280;10913;51.992;9.228;2023-06-01T12:08:55;100769.06;;;17.32;80.54
21504;BME280;10913;51.992;9.228;2023-06-01T12:11:25;100753.78;;;17.37;80.85
21504;BME280;10913;51.992;9.228;2023-06-01T12:13:53;100761.66;;;17.41;81.28
21504;BME280;10913;51.992;9.228;2023-06-01T12:16:24;100764.31;;;17.41;80.84
21504;BME280;10913;51.992;9.228;2023-06-01T12:19:08;100753.63;;;17.41;81.06
21504;BME280;10913;51.992;9.228;2023-06-01T12:21:39;100757.34;;;17.37;81.53
21504;BME280;10913;51.992;9.228;2023-06-01T12:24:05;100762.75;;;17.34;81.30
21504;BME280;10913;51.992;9.228;2023-06-01T12:26:36;100764.53;;;17.34;81.10
21504;BME280;10913;51.992;9.228;2023-06-01T12:29:02;100760.97;;;17.35;81.11
21504;BME280;10913;51.992;9.228;2023-06-01T12:31:27;100759.16;;;17.35;81.31
21504;BME280;10913;51.992;9.228;2023-06-01T12:33:53;100761.03;;;17.32;81.21
21504;BME280;10913;51.992;9.228;2023-06-01T12:38:56;100765.78;;;17.20;82.24
21504;BME280;10913;51.992;9.228;2023-06-01T12:41:24;100766.69;;;17.19;82.11
21504;BME280;10913;51.992;9.228;2023-06-01T12:43:50;100753.44;;;17.16;81.78
21504;BME280;10913;51.992;9.228;2023-06-01T12:46:23;100759.56;;;17.20;81.21
21504;BME280;10913;51.992;9.228;2023-06-01T12:48:50;100760.28;;;17.27;81.45
21504;BME280;10913;51.992;9.228;2023-06-01T12:51:15;100764.63;;;17.31;82.40
21504;BME280;10913;51.992;9.228;2023-06-01T12:53:41;100770.88;;;17.30;81.91
21504;BME280;10913;51.992;9.228;2023-06-01T12:56:11;100769.13;;;17.29;81.79
21504;BME280;10913;51.992;9.228;2023-06-01T12:58:37;100759.41;;;17.26;80.84
21504;BME280;10913;51.992;9.228;2023-06-01T13:01:02;100761.06;;;17.30;81.00
21504;BME280;10913;51.992;9.228;2023-06-01T13:03:28;100753.91;;;17.32;81.06
21504;BME280;10913;51.992;9.228;2023-06-01T13:05:54;100756.47;;;17.37;80.72
21504;BME280;10913;51.992;9.228;2023-06-01T13:08:20;100750.25;;;17.36;80.54
21504;BME280;10913;51.992;9.228;2023-06-01T13:10:45;100750.25;;;17.36;80.32
21504;BME280;10913;51.992;9.228;2023-06-01T13:13:11;100742.22;;;17.36;80.84
21504;BME280;10913;51.992;9.228;2023-06-01T13:15:44;100748.47;;;17.35;80.43
21504;BME280;10913;51.992;9.228;2023-06-01T13:18:11;100751.06;;;17.38;80.95
21504;BME280;10913;51.992;9.228;2023-06-01T13:20:36;100748.41;;;17.38;80.18
21504;BME280;10913;51.992;9.228;2023-06-01T13:23:02;100749.41;;;17.34;81.27
21504;BME280;10913;51.992;9.228;2023-06-01T13:25:29;100753.88;;;17.34;81.01
21504;BME280;10913;51.992;9.228;2023-06-01T13:27:54;100746.81;;;17.31;81.14
21504;BME280;10913;51.992;9.228;2023-06-01T13:30:21;100753.94;;;17.31;81.87
21504;BME280;10913;51.992;9.228;2023-06-01T13:32:47;100752.31;;;17.25;80.96